Time;durP1;ratioP1;P1;durP2;ratioP2;P2;SDS_P1;SDS_P2;PMS_P1;PMS_P2;Temp;Humidity;BMP_temperature;BMP_pressure;BME280_temperature;BME280_humidity;BME280_pressure;Samples;Min_cycle;Max_cycle;Signal;HPM_P1;HPM_P2
2023/08/30 00:00:43;;;;;;;4.88;3.97;;;18.70;99.90;;;;;;4161667;28;20116;-61
2023/08/30 00:02:44;;;;;;;5.10;4.47;;;18.70;99.90;;;;;;4176816;28;20521;-61
2023/08/30 00:04:45;;;;;;;5.68;3.95;;;18.60;99.90;;;;;;4161957;28;20516;-61
2023/08/30 00:06:45;;;;;;;5.22;3.92;;;18.60;99.90;;;;;;4160541;28;20041;-61
2023/08/30 00:08:46;;;;;;;5.82;4.20;;;18.60;99.90;;;;;;4200645;28;20033;-61
2023/08/30 00:10:48;;;;;;;6.03;4.28;;;18.60;99.90;;;;;;4145226;28;20030;-61
2023/08/30 00:12:49;;;;;;;5.88;4.13;;;18.60;99.90;;;;;;4167469;28;20067;-62
2023/08/30 00:14:51;;;;;;;6.32;4.05;;;18.60;99.90;;;;;;4162137;28;20037;-62
2023/08/30 00:16:51;;;;;;;6.90;4.07;;;18.50;99.90;;;;;;4152479;28;20073;-62
2023/08/30 00:18:52;;;;;;;6.75;4.53;;;18.50;99.90;;;;;;4161631;28;20056;-62
2023/08/30 00:20:53;;;;;;;6.60;4.85;;;18.50;99.90;;;;;;4161350;28;20394;-63
2023/08/30 00:22:53;;;;;;;6.97;5.05;;;18.50;99.90;;;;;;4161752;28;20036;-62
2023/08/30 00:24:54;;;;;;;6.15;4.55;;;18.50;99.90;;;;;;4161990;28;20025;-62
2023/08/30 00:26:55;;;;;;;5.97;4.65;;;18.40;99.90;;;;;;4161092;28;20033;-61
2023/08/30 00:28:55;;;;;;;6.50;4.03;;;18.40;99.90;;;;;;4161617;28;20033;-62
2023/08/30 00:30:56;;;;;;;6.63;4.60;;;18.40;99.90;;;;;;4161021;28;20499;-61
2023/08/30 00:32:56;;;;;;;7.88;5.05;;;18.40;99.90;;;;;;4176706;28;20112;-62
2023/08/30 00:34:57;;;;;;;5.00;3.60;;;18.40;99.90;;;;;;4161924;28;20041;-62
2023/08/30 00:36:57;;;;;;;5.90;4.60;;;18.30;99.90;;;;;;4160235;28;20030;-62
2023/08/30 00:38:58;;;;;;;5.40;4.53;;;18.30;99.90;;;;;;4161754;28;20460;-61
2023/08/30 00:41:05;;;;;;;7.57;5.03;;;18.30;99.90;;;;;;4161263;28;20033;-64
2023/08/30 00:43:07;;;;;;;5.30;4.15;;;18.30;99.90;;;;;;4160812;28;20048;-71
2023/08/30 00:45:09;;;;;;;5.63;4.40;;;18.30;99.90;;;;;;4176113;28;20452;-72
2023/08/30 00:47:10;;;;;;;6.05;4.35;;;18.30;99.90;;;;;;4161457;28;20025;-72
2023/08/30 00:49:11;;;;;;;8.20;4.45;;;18.30;99.90;;;;;;4161505;28;20124;-71
2023/08/30 00:51:12;;;;;;;5.30;4.40;;;18.30;99.90;;;;;;4160935;28;20038;-71
2023/08/30 00:53:13;;;;;;;5.53;4.47;;;18.30;99.90;;;;;;4153920;28;20125;-72
2023/08/30 00:55:15;;;;;;;6.63;5.07;;;18.20;99.90;;;;;;4156831;28;20355;-72
2023/08/30 00:57:16;;;;;;;6.88;4.60;;;18.20;99.90;;;;;;4160932;28;20504;-72
2023/08/30 00:59:17;;;;;;;5.85;4.75;;;18.20;99.90;;;;;;4161309;28;20079;-72
2023/08/30 01:01:18;;;;;;;7.93;4.55;;;18.20;99.90;;;;;;4191322;28;20040;-72
2023/08/30 01:03:21;;;;;;;7.45;5.45;;;18.20;99.90;;;;;;4160453;28;20171;-72
2023/08/30 01:05:22;;;;;;;5.43;4.57;;;18.10;99.90;;;;;;4160323;28;20045;-73
2023/08/30 01:07:23;;;;;;;5.25;4.28;;;18.10;99.90;;;;;;4165375;28;20059;-72
2023/08/30 01:09:25;;;;;;;5.68;4.47;;;18.10;99.90;;;;;;4177370;28;20045;-72
2023/08/30 01:12:03;;;;;;;6.88;4.50;;;18.10;99.90;;;;;;4163131;28;20036;-72
2023/08/30 01:14:15;;;;;;;5.93;4.55;;;18.10;99.90;;;;;;4176458;28;20430;-72
2023/08/30 01:16:17;;;;;;;4.50;3.90;;;18.10;99.90;;;;;;4164366;28;20104;-72
2023/08/30 01:18:19;;;;;;;6.57;4.70;;;18.00;99.90;;;;;;4161658;28;20030;-72
2023/08/30 01:20:22;;;;;;;7.50;4.95;;;18.00;99.90;;;;;;4160866;28;20029;-72
2023/08/30 01:22:54;;;;;;;7.93;5.25;;;18.00;99.90;;;;;;4147927;28;20034;-72
2023/08/30 01:25:21;;;;;;;5.07;4.53;;;18.00;99.90;;;;;;4177265;28;20381;-72
2023/08/30 01:27:24;;;;;;;7.55;4.88;;;18.00;99.90;;;;;;4147869;28;20030;-71
2023/08/30 01:29:26;;;;;;;6.38;5.10;;;18.00;99.90;;;;;;4177940;28;20037;-72
2023/08/30 01:31:29;;;;;;;6.20;5.18;;;17.90;99.90;;;;;;4168344;28;20040;-72
2023/08/30 01:33:30;;;;;;;;;;;17.80;99.90;;;;;;4161959;28;20109;-72
2023/08/30 01:35:35;;;;;;;6.80;4.90;;;17.90;99.90;;;;;;4159733;28;20404;-72
2023/08/30 01:37:37;;;;;;;6.50;5.00;;;17.80;99.90;;;;;;4160786;28;20034;-72
2023/08/30 01:39:40;;;;;;;5.77;4.70;;;17.80;99.90;;;;;;4158280;28;20030;-71
2023/08/30 01:41:41;;;;;;;7.22;5.30;;;17.80;99.90;;;;;;4160497;28;20045;-72
2023/08/30 01:43:43;;;;;;;8.43;6.38;;;17.80;99.90;;;;;;4160206;28;20153;-72
2023/08/30 01:45:44;;;;;;;7.85;6.45;;;17.70;99.90;;;;;;4159237;28;20037;-72
2023/08/30 01:47:45;;;;;;;8.10;5.55;;;17.70;99.90;;;;;;4158015;28;20084;-72
2023/08/30 01:49:47;;;;;;;5.95;4.65;;;17.70;99.90;;;;;;4154307;28;20068;-72
2023/08/30 01:51:49;;;;;;;8.68;5.72;;;17.60;99.90;;;;;;4152825;28;20041;-71
2023/08/30 01:53:52;;;;;;;;;;;17.60;99.90;;;;;;4169589;28;20064;-70
2023/08/30 01:55:52;;;;;;;6.20;3.92;;;17.60;99.90;;;;;;4176331;28;19913;-70
2023/08/30 01:57:53;;;;;;;7.57;5.55;;;17.60;99.90;;;;;;4160135;28;20088;-70
2023/08/30 01:59:54;;;;;;;6.47;4.95;;;17.60;99.90;;;;;;4161546;28;23310;-70
2023/08/30 02:01:54;;;;;;;7.57;5.25;;;17.50;99.90;;;;;;4156453;28;20107;-70
2023/08/30 02:03:55;;;;;;;5.88;5.13;;;17.50;99.90;;;;;;4161415;28;20025;-71
2023/08/30 02:06:11;;;;;;;6.22;5.15;;;17.50;99.90;;;;;;4160499;28;20052;-70
2023/08/30 02:08:26;;;;;;;6.50;4.90;;;17.50;99.90;;;;;;4144641;28;20026;-70
2023/08/30 02:10:33;;;;;;;6.25;4.93;;;17.50;99.90;;;;;;4159871;28;20057;-70
2023/08/30 02:12:46;;;;;;;6.90;4.80;;;17.40;99.90;;;;;;4162767;28;20061;-70
2023/08/30 02:14:48;;;;;;;7.82;4.88;;;17.50;99.90;;;;;;4162921;28;20025;-70
2023/08/30 02:16:49;;;;;;;7.20;5.03;;;17.40;99.90;;;;;;4163181;28;20044;-70
2023/08/30 02:18:50;;;;;;;5.32;4.70;;;17.50;99.90;;;;;;4163272;28;20389;-70
2023/08/30 02:20:51;;;;;;;6.05;5.10;;;17.50;99.90;;;;;;4163482;28;20042;-70
2023/08/30 02:22:51;;;;;;;6.07;4.80;;;17.50;99.90;;;;;;4164105;28;20034;-70
2023/08/30 02:24:52;;;;;;;7.53;4.85;;;17.50;99.90;;;;;;4163705;28;20025;-71
2023/08/30 02:26:52;;;;;;;6.18;4.97;;;17.50;99.90;;;;;;4185996;28;20043;-70
2023/08/30 02:28:53;;;;;;;7.35;5.07;;;17.50;99.90;;;;;;4163429;28;20048;-70
2023/08/30 02:30:54;;;;;;;5.72;4.68;;;17.50;99.90;;;;;;4162534;28;20033;-69
2023/08/30 02:32:55;;;;;;;6.68;5.30;;;17.50;99.90;;;;;;4163878;28;20045;-69
2023/08/30 02:34:56;;;;;;;6.07;5.18;;;17.50;99.90;;;;;;4148182;28;20474;-71
2023/08/30 02:36:57;;;;;;;7.00;5.53;;;17.50;99.90;;;;;;4148644;28;20405;-69
2023/08/30 02:38:58;;;;;;;9.50;5.45;;;17.50;99.90;;;;;;4163369;28;20034;-70
2023/08/30 02:40:59;;;;;;;7.88;5.10;;;17.50;99.90;;;;;;4149596;28;20470;-70
2023/08/30 02:42:59;;;;;;;7.68;5.35;;;17.40;99.90;;;;;;4152654;28;20083;-71
2023/08/30 02:45:00;;;;;;;8.35;5.25;;;17.40;99.90;;;;;;4161244;28;20470;-70
2023/08/30 02:47:00;;;;;;;6.28;4.85;;;17.40;99.90;;;;;;4160321;28;20036;-70
2023/08/30 02:49:01;;;;;;;6.60;5.10;;;17.40;99.90;;;;;;4165912;28;20128;-70
2023/08/30 02:51:02;;;;;;;8.40;5.97;;;17.40;99.90;;;;;;4179486;28;20033;-70
2023/08/30 02:53:03;;;;;;;9.05;5.90;;;17.40;99.90;;;;;;4171779;28;20041;-70
2023/08/30 02:55:04;;;;;;;6.00;5.35;;;17.30;99.90;;;;;;4170000;28;20119;-72
2023/08/30 02:57:05;;;;;;;6.28;5.25;;;17.30;99.90;;;;;;4179093;28;20532;-69
2023/08/30 02:59:06;;;;;;;8.35;5.47;;;17.30;99.90;;;;;;4165368;28;20049;-70
2023/08/30 03:01:09;;;;;;;6.05;5.40;;;17.30;99.90;;;;;;4162867;28;20374;-62
2023/08/30 03:03:10;;;;;;;7.80;5.97;;;17.30;99.90;;;;;;4163016;28;20038;-71
2023/08/30 03:05:11;;;;;;;7.60;5.65;;;17.30;99.90;;;;;;4162445;28;20108;-72
2023/08/30 03:07:12;;;;;;;7.67;5.77;;;17.30;99.90;;;;;;4163173;28;20106;-71
2023/08/30 03:09:13;;;;;;;9.63;5.97;;;17.20;99.90;;;;;;4162605;28;20299;-72
2023/08/30 03:11:13;;;;;;;7.15;5.50;;;17.20;99.90;;;;;;4167755;28;20116;-72
2023/08/30 03:13:14;;;;;;;7.80;5.85;;;17.20;99.90;;;;;;4163037;28;20038;-72
2023/08/30 03:15:15;;;;;;;6.57;5.13;;;17.20;99.90;;;;;;4162444;28;20497;-72
2023/08/30 03:17:15;;;;;;;8.07;6.18;;;17.30;99.90;;;;;;4162162;28;20037;-72
2023/08/30 03:19:17;;;;;;;9.93;6.45;;;17.30;99.90;;;;;;4163148;28;20060;-71
2023/08/30 03:21:18;;;;;;;7.63;6.67;;;17.30;99.90;;;;;;4161782;28;20494;-71
2023/08/30 03:23:18;;;;;;;10.23;6.35;;;17.30;99.90;;;;;;4161986;28;20034;-71
2023/08/30 03:25:19;;;;;;;10.45;6.78;;;17.30;99.90;;;;;;4161874;28;20036;-72
2023/08/30 03:27:19;;;;;;;9.27;6.75;;;17.30;99.90;;;;;;4162869;28;20508;-71
2023/08/30 03:29:20;;;;;;;7.60;6.38;;;17.30;99.90;;;;;;4161738;28;20046;-71
2023/08/30 03:31:21;;;;;;;8.38;6.30;;;17.30;99.90;;;;;;4178571;28;20029;-71
2023/08/30 03:33:22;;;;;;;9.80;6.13;;;17.30;99.90;;;;;;4175680;28;20028;-71
2023/08/30 03:35:22;;;;;;;10.23;6.38;;;17.30;99.90;;;;;;4161956;28;20104;-71
2023/08/30 03:37:23;;;;;;;7.18;5.90;;;17.20;99.90;;;;;;4162825;28;20029;-72
2023/08/30 03:39:24;;;;;;;8.20;6.57;;;17.30;99.90;;;;;;4162663;28;20030;-71
2023/08/30 03:41:25;;;;;;;9.32;6.20;;;17.20;99.90;;;;;;4161910;28;20037;-70
2023/08/30 03:43:25;;;;;;;9.02;6.82;;;17.20;99.90;;;;;;4162597;28;20113;-70
2023/08/30 03:45:26;;;;;;;8.60;6.53;;;17.20;99.90;;;;;;4161643;28;20043;-71
2023/08/30 03:47:27;;;;;;;10.45;7.15;;;17.20;99.90;;;;;;4161120;28;20029;-72
2023/08/30 03:49:27;;;;;;;8.52;6.55;;;17.20;99.90;;;;;;4162206;28;20040;-71
2023/08/30 03:51:28;;;;;;;9.82;7.05;;;17.10;99.90;;;;;;4161842;28;20033;-71
2023/08/30 03:53:30;;;;;;;9.65;6.82;;;17.20;99.90;;;;;;4162602;28;20438;-71
2023/08/30 03:55:30;;;;;;;9.60;7.37;;;17.20;99.90;;;;;;4161369;28;20039;-72
2023/08/30 03:57:31;;;;;;;7.75;6.50;;;17.10;99.90;;;;;;4162533;28;20485;-72
2023/08/30 03:59:33;;;;;;;10.30;7.45;;;17.10;99.90;;;;;;4162131;28;20087;-72
2023/08/30 04:01:33;;;;;;;11.90;8.13;;;17.00;99.90;;;;;;4162759;28;20040;-72
2023/08/30 04:03:34;;;;;;;13.27;9.57;;;17.10;99.90;;;;;;4162469;28;20486;-72
2023/08/30 04:05:35;;;;;;;13.00;8.25;;;17.10;99.90;;;;;;4161440;28;20437;-71
2023/08/30 04:07:36;;;;;;;11.65;7.85;;;17.00;99.90;;;;;;4162051;28;20037;-71
2023/08/30 04:09:37;;;;;;;14.38;9.27;;;17.00;99.90;;;;;;4161959;28;20417;-72
2023/08/30 04:11:37;;;;;;;12.52;7.82;;;17.00;99.90;;;;;;4160171;28;20037;-74
2023/08/30 04:13:38;;;;;;;14.23;9.38;;;17.00;99.90;;;;;;4146591;28;20034;-74
2023/08/30 04:15:39;;;;;;;15.07;8.43;;;17.00;99.90;;;;;;4157270;28;20041;-73
2023/08/30 04:17:39;;;;;;;10.70;7.72;;;17.00;99.90;;;;;;4162177;28;20045;-74
2023/08/30 04:19:40;;;;;;;14.20;9.20;;;17.00;99.90;;;;;;4161559;28;20030;-74
2023/08/30 04:21:41;;;;;;;11.90;8.15;;;16.90;99.90;;;;;;4161066;28;20139;-74
2023/08/30 04:23:41;;;;;;;10.55;8.00;;;16.90;99.90;;;;;;4161461;28;20037;-74
2023/08/30 04:25:44;;;;;;;9.90;7.90;;;16.90;99.90;;;;;;4160241;28;20397;-74
2023/08/30 04:27:44;;;;;;;;;;;16.90;99.90;;;;;;4162233;28;20049;-74
2023/08/30 04:29:45;;;;;;;9.80;7.50;;;16.90;99.90;;;;;;4161484;28;20369;-74
2023/08/30 04:31:46;;;;;;;11.13;8.00;;;16.80;99.90;;;;;;4154760;28;20033;-74
2023/08/30 04:33:46;;;;;;;9.38;7.40;;;16.80;99.90;;;;;;4145640;28;20037;-74
2023/08/30 04:35:51;;;;;;;13.02;8.48;;;16.80;99.90;;;;;;4153547;28;20481;-74
2023/08/30 04:37:52;;;;;;;11.63;8.07;;;16.80;99.90;;;;;;4161990;28;20504;-74
2023/08/30 04:39:53;;;;;;;13.88;8.68;;;16.80;99.90;;;;;;4161905;28;20055;-74
2023/08/30 04:41:53;;;;;;;12.57;8.77;;;16.70;99.90;;;;;;4157850;28;20090;-74
2023/08/30 04:43:54;;;;;;;10.80;7.53;;;16.70;99.90;;;;;;4175566;28;20552;-74
2023/08/30 04:45:54;;;;;;;8.88;7.15;;;16.70;99.90;;;;;;4160793;28;20033;-72
2023/08/30 04:47:55;;;;;;;11.75;7.68;;;16.70;99.90;;;;;;4161343;28;20044;-73
2023/08/30 04:49:56;;;;;;;11.90;7.90;;;16.70;99.90;;;;;;4161827;28;20029;-73
2023/08/30 04:51:57;;;;;;;10.07;8.35;;;16.70;99.90;;;;;;4166532;28;20040;-70
2023/08/30 04:53:57;;;;;;;12.38;9.00;;;16.70;99.90;;;;;;4178142;28;20108;-70
2023/08/30 04:55:59;;;;;;;11.68;8.85;;;16.70;99.90;;;;;;4170641;28;20025;-70
2023/08/30 04:57:59;;;;;;;10.10;7.68;;;16.70;99.90;;;;;;4178114;28;20100;-69
2023/08/30 05:00:04;;;;;;;13.50;8.70;;;16.70;99.90;;;;;;4177591;28;20378;-69
2023/08/30 05:02:04;;;;;;;11.32;8.60;;;16.60;99.90;;;;;;4160807;28;20029;-70
2023/08/30 05:04:05;;;;;;;13.23;9.32;;;16.60;99.90;;;;;;4161691;28;20030;-70
2023/08/30 05:06:07;;;;;;;10.73;7.25;;;16.60;99.90;;;;;;4158671;28;20050;-70
2023/08/30 05:08:07;;;;;;;9.82;7.60;;;16.60;99.90;;;;;;4161609;28;20029;-69
2023/08/30 05:10:08;;;;;;;10.63;7.70;;;16.60;99.90;;;;;;4175820;28;20047;-70
2023/08/30 05:12:09;;;;;;;11.70;8.82;;;16.60;99.90;;;;;;4160462;28;20083;-69
2023/08/30 05:14:12;;;;;;;10.57;7.90;;;16.50;99.90;;;;;;4160319;28;20124;-69
2023/08/30 05:16:13;;;;;;;11.52;8.45;;;16.50;99.90;;;;;;4155275;28;20022;-70
2023/08/30 05:18:13;;;;;;;11.93;8.05;;;16.50;99.90;;;;;;4158281;28;20555;-70
2023/08/30 05:20:14;;;;;;;11.27;8.60;;;16.50;99.90;;;;;;4160728;28;20094;-71
2023/08/30 05:22:15;;;;;;;14.43;9.40;;;16.50;99.90;;;;;;4160547;28;20151;-70
2023/08/30 05:24:15;;;;;;;12.20;8.63;;;16.40;99.90;;;;;;4160612;28;20037;-70
2023/08/30 05:26:19;;;;;;;11.73;7.97;;;16.40;99.90;;;;;;4156453;28;20493;-70
2023/08/30 05:28:19;;;;;;;13.85;7.70;;;16.40;99.90;;;;;;4160765;28;20045;-74
2023/08/30 05:30:20;;;;;;;10.02;7.78;;;16.30;99.90;;;;;;4174404;28;20385;-75
2023/08/30 05:32:21;;;;;;;10.43;7.00;;;16.30;99.90;;;;;;4155820;28;20084;-74
2023/08/30 05:34:23;;;;;;;12.70;8.85;;;16.30;99.90;;;;;;4162157;28;20120;-81
2023/08/30 05:36:24;;;;;;;12.40;7.65;;;16.40;99.90;;;;;;4158923;28;20045;-78
2023/08/30 05:38:24;;;;;;;9.65;7.28;;;16.40;99.90;;;;;;4161407;28;20095;-70
2023/08/30 05:40:25;;;;;;;10.13;7.63;;;16.40;99.90;;;;;;4174533;28;20064;-70
2023/08/30 05:42:25;;;;;;;9.73;7.55;;;16.40;99.90;;;;;;4199971;28;20040;-71
2023/08/30 05:44:26;;;;;;;13.20;8.65;;;16.40;99.90;;;;;;4162129;28;20037;-71
2023/08/30 05:46:27;;;;;;;10.88;7.93;;;16.50;99.90;;;;;;4170750;28;20029;-68
2023/08/30 05:48:28;;;;;;;11.20;8.13;;;16.50;99.90;;;;;;4162377;28;20044;-71
2023/08/30 05:50:29;;;;;;;9.73;7.60;;;16.50;99.90;;;;;;4163138;28;20038;-70
2023/08/30 05:52:29;;;;;;;12.30;8.00;;;16.50;99.90;;;;;;4164196;28;20057;-71
2023/08/30 05:54:31;;;;;;;8.43;6.60;;;16.50;99.90;;;;;;4163845;28;20051;-71
2023/08/30 05:56:32;;;;;;;9.38;7.32;;;16.50;99.90;;;;;;4162976;28;20117;-71
2023/08/30 05:58:32;;;;;;;9.40;7.65;;;16.50;99.90;;;;;;4163795;28;20030;-71
2023/08/30 06:00:33;;;;;;;13.73;8.70;;;16.50;99.90;;;;;;4162963;28;20121;-71
2023/08/30 06:02:33;;;;;;;12.15;7.60;;;16.50;99.90;;;;;;4164470;28;20500;-71
2023/08/30 06:04:34;;;;;;;11.77;8.00;;;16.50;99.90;;;;;;4165484;28;20029;-71
2023/08/30 06:06:35;;;;;;;12.02;7.85;;;16.60;99.90;;;;;;4169708;28;20128;-71
2023/08/30 06:08:35;;;;;;;11.18;7.50;;;16.60;99.90;;;;;;4164772;28;20048;-71
2023/08/30 06:10:36;;;;;;;12.98;7.35;;;16.60;99.90;;;;;;4162394;28;20026;-71
2023/08/30 06:12:37;;;;;;;10.13;7.47;;;16.60;99.90;;;;;;4161887;28;20537;-70
2023/08/30 06:14:37;;;;;;;11.38;7.90;;;16.50;99.90;;;;;;4161354;28;20128;-70
2023/08/30 06:16:38;;;;;;;11.48;7.97;;;16.60;99.90;;;;;;4158553;28;20088;-71
2023/08/30 06:18:38;;;;;;;11.90;7.63;;;16.60;99.90;;;;;;4160060;28;20026;-71
2023/08/30 06:20:42;;;;;;;9.93;6.90;;;16.60;99.90;;;;;;4162587;28;20040;-71
2023/08/30 06:22:43;;;;;;;9.77;7.25;;;16.60;99.90;;;;;;4163247;28;20033;-72
2023/08/30 06:24:43;;;;;;;11.13;7.40;;;16.70;99.90;;;;;;4162082;28;20065;-71
2023/08/30 06:26:44;;;;;;;11.05;7.25;;;16.70;99.90;;;;;;4161638;28;20049;-71
2023/08/30 06:28:45;;;;;;;15.88;8.13;;;16.70;99.90;;;;;;4161648;28;20493;-72
2023/08/30 06:30:45;;;;;;;12.13;7.38;;;16.80;99.90;;;;;;4160137;28;20061;-69
2023/08/30 06:32:46;;;;;;;11.73;7.90;;;16.80;99.90;;;;;;4161987;28;20091;-71
2023/08/30 06:34:47;;;;;;;12.23;8.68;;;16.90;99.90;;;;;;4176784;28;20041;-71
2023/08/30 06:36:48;;;;;;;9.85;7.32;;;16.90;99.90;;;;;;4162224;28;20044;-72
2023/08/30 06:38:49;;;;;;;13.07;8.45;;;17.00;99.90;;;;;;4163105;28;20071;-70
2023/08/30 06:40:49;;;;;;;11.77;7.55;;;17.10;99.90;;;;;;4162498;28;20025;-71
2023/08/30 06:42:50;;;;;;;12.55;7.70;;;17.30;99.90;;;;;;4162351;28;20072;-71
2023/08/30 06:44:50;;;;;;;12.30;7.85;;;17.40;99.90;;;;;;4158178;28;20516;-71
2023/08/30 06:46:51;;;;;;;12.43;7.57;;;17.60;99.90;;;;;;4145595;28;20036;-71
2023/08/30 06:48:52;;;;;;;12.50;7.72;;;17.80;99.90;;;;;;4112684;28;20128;-71
2023/08/30 06:50:52;;;;;;;10.48;8.13;;;18.00;99.90;;;;;;4093507;28;20051;-72
2023/08/30 06:52:53;;;;;;;10.27;6.47;;;18.10;99.90;;;;;;4162801;28;20087;-72
2023/08/30 06:54:54;;;;;;;12.15;7.63;;;18.30;99.90;;;;;;4148154;28;20195;-72
2023/08/30 06:57:01;;;;;;;8.70;6.32;;;18.40;99.90;;;;;;4162143;28;20034;-72
2023/08/30 06:59:02;;;;;;;9.23;6.13;;;18.60;99.90;;;;;;4161284;28;20473;-72
2023/08/30 07:01:03;;;;;;;10.82;6.80;;;18.80;99.90;;;;;;4155976;28;20034;-71
2023/08/30 07:03:04;;;;;;;9.00;6.35;;;19.00;99.90;;;;;;4162592;28;20378;-72
2023/08/30 07:05:05;;;;;;;15.02;7.72;;;19.20;99.90;;;;;;4165357;28;20044;-72
2023/08/30 07:07:05;;;;;;;10.52;6.32;;;19.30;99.90;;;;;;4162374;28;20119;-72
2023/08/30 07:09:06;;;;;;;10.13;7.28;;;19.40;99.90;;;;;;4162792;28;20049;-72
2023/08/30 07:11:07;;;;;;;8.27;5.78;;;19.50;99.90;;;;;;4162822;28;20061;-72
2023/08/30 07:13:11;;;;;;;14.57;7.13;;;19.60;99.90;;;;;;4162406;28;20026;-70
2023/08/30 07:15:12;;;;;;;7.88;5.35;;;19.70;99.90;;;;;;4161247;28;20029;-72
2023/08/30 07:17:12;;;;;;;7.63;5.35;;;19.80;99.90;;;;;;4159046;28;20116;-72
2023/08/30 07:19:13;;;;;;;10.18;5.93;;;20.00;99.90;;;;;;4163533;28;20127;-72
2023/08/30 07:21:14;;;;;;;8.73;6.28;;;19.90;99.90;;;;;;4160511;28;20033;-72
2023/08/30 07:23:14;;;;;;;8.32;5.30;;;20.10;99.90;;;;;;4161661;28;20036;-71
2023/08/30 07:25:15;;;;;;;12.10;6.07;;;20.20;99.90;;;;;;4160926;28;20034;-72
2023/08/30 07:27:16;;;;;;;9.35;5.82;;;20.30;99.90;;;;;;4162259;28;20510;-71
2023/08/30 07:29:16;;;;;;;9.43;5.32;;;20.30;99.90;;;;;;4162892;28;20117;-72
2023/08/30 07:31:18;;;;;;;9.05;4.97;;;20.30;99.90;;;;;;4161820;28;20391;-71
2023/08/30 07:33:18;;;;;;;9.05;5.22;;;20.30;99.90;;;;;;4156317;28;20056;-71
2023/08/30 07:35:19;;;;;;;11.35;5.50;;;20.40;99.90;;;;;;4112335;28;20038;-71
2023/08/30 07:37:21;;;;;;;6.63;4.95;;;20.30;99.90;;;;;;4139091;28;20026;-71
2023/08/30 07:39:22;;;;;;;7.63;5.10;;;20.40;99.90;;;;;;4160412;28;20436;-70
2023/08/30 07:41:22;;;;;;;11.15;5.55;;;20.40;99.90;;;;;;4162823;28;20088;-70
2023/08/30 07:43:23;;;;;;;7.70;4.97;;;20.30;99.90;;;;;;4162444;28;20159;-71
2023/08/30 07:45:23;;;;;;;6.28;4.18;;;20.20;99.90;;;;;;4159028;28;20075;-70
2023/08/30 07:47:24;;;;;;;7.00;4.40;;;20.20;99.90;;;;;;4162263;28;20025;-70
2023/08/30 07:49:25;;;;;;;11.13;5.72;;;20.10;99.90;;;;;;4161519;28;20037;-71
2023/08/30 07:51:25;;;;;;;9.32;4.90;;;20.10;99.90;;;;;;4161392;28;20044;-70
2023/08/30 07:53:26;;;;;;;8.32;5.60;;;19.90;99.90;;;;;;4162128;28;20627;-71
2023/08/30 07:55:26;;;;;;;6.43;4.55;;;19.80;99.90;;;;;;4159318;28;20034;-70
2023/08/30 07:57:27;;;;;;;8.75;6.03;;;19.80;99.90;;;;;;4162173;28;20389;-71
2023/08/30 07:59:28;;;;;;;8.75;4.95;;;19.80;99.90;;;;;;4164747;28;20540;-71
2023/08/30 08:01:29;;;;;;;12.05;5.20;;;19.60;99.90;;;;;;4159476;28;20064;-70
2023/08/30 08:03:29;;;;;;;9.13;4.38;;;19.70;99.90;;;;;;4161791;28;20040;-71
2023/08/30 08:05:30;;;;;;;8.48;4.97;;;19.60;99.90;;;;;;4159385;28;20412;-70
2023/08/30 08:07:30;;;;;;;5.97;3.90;;;19.60;99.90;;;;;;4160696;28;20099;-70
2023/08/30 08:09:32;;;;;;;11.18;5.00;;;19.60;99.90;;;;;;4163449;28;20037;-71
2023/08/30 08:11:32;;;;;;;10.00;5.05;;;19.60;99.90;;;;;;4161298;28;20063;-70
2023/08/30 08:13:33;;;;;;;7.85;4.75;;;19.50;99.90;;;;;;4159974;28;20034;-71
2023/08/30 08:15:34;;;;;;;7.57;4.78;;;19.50;99.90;;;;;;4161063;28;20033;-71
2023/08/30 08:17:35;;;;;;;7.65;4.70;;;19.40;99.90;;;;;;4158481;28;20033;-71
2023/08/30 08:19:39;;;;;;;6.20;4.18;;;19.40;99.90;;;;;;4164597;28;20025;-72
2023/08/30 08:21:40;;;;;;;8.00;4.25;;;19.40;99.90;;;;;;4161038;28;20029;-68
2023/08/30 08:23:40;;;;;;;7.90;3.85;;;19.50;99.90;;;;;;4161593;28;20064;-70
2023/08/30 08:25:41;;;;;;;10.95;4.80;;;19.50;99.90;;;;;;4172163;28;20064;-70
2023/08/30 08:27:42;;;;;;;11.30;4.18;;;19.40;99.90;;;;;;4159243;28;20060;-70
2023/08/30 08:29:42;;;;;;;9.05;4.20;;;19.30;99.90;;;;;;4096118;28;20036;-71
2023/08/30 08:31:43;;;;;;;7.82;4.82;;;19.30;99.90;;;;;;4095069;28;20114;-71
2023/08/30 08:33:45;;;;;;;6.55;4.05;;;19.30;99.90;;;;;;4110076;28;20033;-69
2023/08/30 08:35:47;;;;;;;6.55;4.15;;;19.20;99.90;;;;;;4084321;28;20070;-71
2023/08/30 08:37:48;;;;;;;6.38;3.80;;;19.00;99.90;;;;;;4174397;28;20035;-70
2023/08/30 08:39:51;;;;;;;6.82;3.30;;;19.00;99.90;;;;;;4162523;28;20485;-71
2023/08/30 08:41:53;;;;;;;5.35;3.58;;;18.90;99.90;;;;;;4164425;28;20037;-70
2023/08/30 08:43:54;;;;;;;5.88;3.88;;;18.90;99.90;;;;;;4161389;28;20136;-71
2023/08/30 08:45:59;;;;;;;4.47;3.08;;;18.90;99.90;;;;;;4160515;28;20087;-71
2023/08/30 08:48:05;;;;;;;5.72;3.67;;;18.90;99.90;;;;;;4159616;28;20087;-71
2023/08/30 08:50:06;;;;;;;5.57;3.90;;;18.80;99.90;;;;;;4158127;28;20033;-70
2023/08/30 08:52:07;;;;;;;6.55;3.80;;;18.80;99.90;;;;;;4163370;28;20056;-78
2023/08/30 08:54:11;;;;;;;6.40;3.67;;;18.70;99.90;;;;;;4157491;28;20029;-68
2023/08/30 08:56:13;;;;;;;6.65;3.38;;;18.80;99.90;;;;;;4160246;28;20026;-69
2023/08/30 08:58:14;;;;;;;4.78;3.42;;;18.70;99.90;;;;;;4161594;28;20026;-69
2023/08/30 09:00:18;;;;;;;4.65;3.00;;;18.70;99.90;;;;;;4161282;28;20104;-69
2023/08/30 09:02:19;;;;;;;6.00;3.20;;;18.70;99.90;;;;;;4160765;28;20036;-69
2023/08/30 09:04:20;;;;;;;7.25;3.60;;;18.60;99.90;;;;;;4135763;28;20029;-70
2023/08/30 09:06:22;;;;;;;5.30;3.60;;;18.60;99.90;;;;;;4168591;28;20057;-69
2023/08/30 09:08:23;;;;;;;3.78;2.83;;;18.50;99.90;;;;;;4161181;28;20037;-69
2023/08/30 09:10:24;;;;;;;5.50;3.70;;;18.60;99.90;;;;;;4159778;28;20037;-69
2023/08/30 09:12:24;;;;;;;5.40;3.65;;;18.50;99.90;;;;;;4173866;28;20060;-69
2023/08/30 09:14:25;;;;;;;8.80;3.90;;;18.50;99.90;;;;;;4162822;28;20053;-69
2023/08/30 09:16:26;;;;;;;7.20;4.20;;;18.40;99.90;;;;;;4156536;28;20052;-70
2023/08/30 09:18:27;;;;;;;5.88;4.00;;;18.40;99.90;;;;;;4159394;28;20120;-69
2023/08/30 09:20:28;;;;;;;5.75;4.18;;;18.30;99.90;;;;;;4158608;28;20048;-69
2023/08/30 09:22:39;;;;;;;6.13;4.07;;;18.30;99.90;;;;;;4176450;28;20401;-69
2023/08/30 09:24:40;;;;;;;7.60;4.55;;;18.20;99.90;;;;;;4179809;28;20112;-69
2023/08/30 09:26:49;;;;;;;7.00;3.88;;;18.10;99.90;;;;;;4163546;28;20029;-69
2023/08/30 09:28:49;;;;;;;5.78;4.15;;;18.10;99.90;;;;;;4164129;28;20407;-69
2023/08/30 09:30:51;;;;;;;6.25;3.92;;;18.00;99.90;;;;;;4163556;28;20041;-69
2023/08/30 09:32:51;;;;;;;7.05;4.05;;;17.90;99.90;;;;;;4164201;28;20037;-69
2023/08/30 09:34:52;;;;;;;5.93;4.32;;;17.80;99.90;;;;;;4164096;28;20092;-70
2023/08/30 09:36:54;;;;;;;4.97;3.88;;;17.80;99.90;;;;;;4163598;28;20128;-69
2023/08/30 09:38:58;;;;;;;4.95;3.75;;;17.70;99.90;;;;;;4162617;28;20528;-69
2023/08/30 09:41:05;;;;;;;5.93;3.97;;;17.60;99.90;;;;;;4169507;28;20033;-70
2023/08/30 09:43:06;;;;;;;4.85;3.72;;;17.60;99.90;;;;;;4180944;28;20028;-69
2023/08/30 09:45:18;;;;;;;7.30;3.92;;;17.60;99.90;;;;;;4186999;28;20033;-70
2023/08/30 09:47:19;;;;;;;5.13;3.47;;;17.60;99.90;;;;;;4166538;28;20536;-70
2023/08/30 09:49:24;;;;;;;4.60;3.67;;;17.60;99.90;;;;;;4148039;28;20037;-70
2023/08/30 09:51:27;;;;;;;5.35;3.08;;;17.60;99.90;;;;;;4159451;28;20042;-70
2023/08/30 09:53:29;;;;;;;;;;;17.60;99.90;;;;;;4179842;28;20025;-70
2023/08/30 09:55:30;;;;;;;8.90;4.17;;;17.60;99.90;;;;;;4163348;28;20000;-69
2023/08/30 09:57:31;;;;;;;6.35;3.80;;;17.50;99.90;;;;;;4160002;28;20044;-69
2023/08/30 09:59:32;;;;;;;7.03;3.58;;;17.60;99.90;;;;;;4124608;28;20033;-69
2023/08/30 10:01:35;;;;;;;7.28;4.20;;;17.50;99.90;;;;;;4106518;28;20036;-69
2023/08/30 10:03:36;;;;;;;7.65;4.47;;;17.50;99.90;;;;;;4191075;28;20044;-72
2023/08/30 10:05:37;;;;;;;6.30;3.53;;;17.50;99.90;;;;;;4179856;28;20557;-71
2023/08/30 10:07:39;;;;;;;6.72;4.20;;;17.50;99.90;;;;;;4172900;28;20493;-72
2023/08/30 10:09:39;;;;;;;7.68;4.57;;;17.50;99.90;;;;;;4148188;28;20034;-71
2023/08/30 10:11:40;;;;;;;6.90;3.95;;;17.40;99.90;;;;;;4194427;28;20486;-71
2023/08/30 10:13:43;;;;;;;6.45;4.22;;;17.50;99.90;;;;;;4164270;28;20026;-71
2023/08/30 10:15:48;;;;;;;6.18;4.35;;;17.40;99.90;;;;;;4161738;28;20655;-71
2023/08/30 10:17:53;;;;;;;4.47;3.20;;;17.50;99.90;;;;;;4160428;28;20033;-71
2023/08/30 10:19:56;;;;;;;7.03;4.57;;;17.50;99.90;;;;;;4163501;28;20045;-72
2023/08/30 10:21:59;;;;;;;8.50;3.92;;;17.50;99.90;;;;;;4146817;28;20037;-72
2023/08/30 10:24:03;;;;;;;5.45;4.10;;;17.40;99.90;;;;;;4165847;28;20029;-72
2023/08/30 10:26:05;;;;;;;5.93;3.97;;;17.40;99.90;;;;;;4163251;28;20068;-71
2023/08/30 10:28:07;;;;;;;7.65;4.05;;;17.20;99.90;;;;;;4164046;28;20044;-71
2023/08/30 10:30:10;;;;;;;6.18;3.92;;;17.20;99.90;;;;;;4162544;28;20084;-72
2023/08/30 10:32:10;;;;;;;4.78;3.35;;;17.10;99.90;;;;;;4163849;28;20108;-72